sensor_id;sensor_type;location;lat;lon;timestamp;pressure;altitude;pressure_sealevel;temperature;humidity
20027;BME280;10174;42.688;23.344;2023-03-12T00:00:34;94331.00;;;1.60;66.21
20027;BME280;10174;42.688;23.344;2023-03-12T00:03:00;94453.41;;;2.21;66.90
20027;BME280;10174;42.688;23.344;2023-03-12T00:05:25;94459.72;;;2.32;67.13
20027;BME280;10174;42.688;23.344;2023-03-12T00:07:51;94463.06;;;2.27;66.18
20027;BME280;10174;42.688;23.344;2023-03-12T00:10:18;94442.59;;;2.11;66.19
20027;BME280;10174;42.688;23.344;2023-03-12T00:12:44;94449.84;;;2.16;65.86
20027;BME280;10174;42.688;23.344;2023-03-12T00:15:09;94476.00;;;2.24;65.73
20027;BME280;10174;42.688;23.344;2023-03-12T00:17:35;94465.63;;;2.10;65.79
20027;BME280;10174;42.688;23.344;2023-03-12T00:20:01;94466.53;;;2.16;65.62
20027;BME280;10174;42.688;23.344;2023-03-12T00:22:26;94480.59;;;2.28;65.50
20027;BME280;10174;42.688;23.344;2023-03-12T00:24:53;94467.94;;;2.07;66.27
20027;BME280;10174;42.688;23.344;2023-03-12T00:27:19;94485.09;;;2.28;66.38
20027;BME280;10174;42.688;23.344;2023-03-12T00:29:44;94468.38;;;2.04;66.00
20027;BME280;10174;42.688;23.344;2023-03-12T00:32:10;94498.59;;;2.26;65.51
20027;BME280;10174;42.688;23.344;2023-03-12T00:34:35;94486.94;;;2.16;65.50
20027;BME280;10174;42.688;23.344;2023-03-12T00:37:01;94499.75;;;2.19;66.34
20027;BME280;10174;42.688;23.344;2023-03-12T00:39:26;94481.97;;;2.19;66.30
20027;BME280;10174;42.688;23.344;2023-03-12T00:41:51;94480.94;;;2.08;67.23
20027;BME280;10174;42.688;23.344;2023-03-12T00:44:18;94497.53;;;2.27;66.14
20027;BME280;10174;42.688;23.344;2023-03-12T00:46:43;94472.19;;;2.08;65.53
20027;BME280;10174;42.688;23.344;2023-03-12T00:49:09;94462.84;;;1.93;65.44
20027;BME280;10174;42.688;23.344;2023-03-12T00:51:36;94493.38;;;2.20;66.33
20027;BME280;10174;42.688;23.344;2023-03-12T00:54:02;94499.50;;;2.20;66.38
20027;BME280;10174;42.688;23.344;2023-03-12T00:56:27;94502.47;;;2.12;66.67
20027;BME280;10174;42.688;23.344;2023-03-12T00:58:52;94505.72;;;2.14;67.89
20027;BME280;10174;42.688;23.344;2023-03-12T01:01:18;94504.22;;;2.06;66.74
20027;BME280;10174;42.688;23.344;2023-03-12T01:03:44;94504.56;;;2.10;66.85
20027;BME280;10174;42.688;23.344;2023-03-12T01:06:10;94518.16;;;2.02;66.88
20027;BME280;10174;42.688;23.344;2023-03-12T01:08:36;94461.66;;;1.66;66.84
20027;BME280;10174;42.688;23.344;2023-03-12T01:11:02;94509.63;;;2.00;66.90
20027;BME280;10174;42.688;23.344;2023-03-12T01:13:27;94508.94;;;1.92;67.38
20027;BME280;10174;42.688;23.344;2023-03-12T01:15:53;94502.56;;;1.82;66.85
20027;BME280;10174;42.688;23.344;2023-03-12T01:18:18;94529.69;;;1.95;66.16
20027;BME280;10174;42.688;23.344;2023-03-12T01:20:44;94521.31;;;1.80;68.22
20027;BME280;10174;42.688;23.344;2023-03-12T01:23:09;94520.75;;;1.78;67.36
20027;BME280;10174;42.688;23.344;2023-03-12T01:25:35;94532.97;;;1.79;66.84
20027;BME280;10174;42.688;23.344;2023-03-12T01:28:01;94511.88;;;1.72;67.41
20027;BME280;10174;42.688;23.344;2023-03-12T01:30:27;94431.41;;;1.19;67.47
20027;BME280;10174;42.688;23.344;2023-03-12T01:32:52;94531.56;;;1.76;67.58
20027;BME280;10174;42.688;23.344;2023-03-12T01:35:18;94517.84;;;1.68;67.64
20027;BME280;10174;42.688;23.344;2023-03-12T01:37:43;94514.63;;;1.66;67.78
20027;BME280;10174;42.688;23.344;2023-03-12T01:40:17;94514.16;;;1.69;67.65
20027;BME280;10174;42.688;23.344;2023-03-12T01:42:51;94429.06;;;1.11;68.47
20027;BME280;10174;42.688;23.344;2023-03-12T01:48:17;94527.97;;;1.71;68.58
20027;BME280;10174;42.688;23.344;2023-03-12T01:50:43;94507.72;;;1.65;69.01
20027;BME280;10174;42.688;23.344;2023-03-12T01:53:09;94511.19;;;1.65;68.70
20027;BME280;10174;42.688;23.344;2023-03-12T01:55:35;94509.34;;;1.66;69.08
20027;BME280;10174;42.688;23.344;2023-03-12T01:58:01;94516.94;;;1.74;68.38
20027;BME280;10174;42.688;23.344;2023-03-12T02:00:26;94509.66;;;1.69;68.15
20027;BME280;10174;42.688;23.344;2023-03-12T02:02:55;94455.25;;;1.31;68.88
20027;BME280;10174;42.688;23.344;2023-03-12T02:05:28;94525.47;;;1.76;68.55
20027;BME280;10174;42.688;23.344;2023-03-12T02:07:56;94512.88;;;1.59;68.79
20027;BME280;10174;42.688;23.344;2023-03-12T02:10:22;94545.94;;;1.69;68.44
20027;BME280;10174;42.688;23.344;2023-03-12T02:12:49;94537.56;;;1.72;67.56
20027;BME280;10174;42.688;23.344;2023-03-12T02:15:15;94543.88;;;1.71;67.12
20027;BME280;10174;42.688;23.344;2023-03-12T02:17:40;94538.97;;;1.74;67.30
20027;BME280;10174;42.688;23.344;2023-03-12T02:22:50;94539.41;;;1.71;67.36
20027;BME280;10174;42.688;23.344;2023-03-12T02:25:41;94544.31;;;1.68;66.41
20027;BME280;10174;42.688;23.344;2023-03-12T02:28:11;94545.59;;;1.65;67.72
20027;BME280;10174;42.688;23.344;2023-03-12T02:30:39;94536.38;;;1.56;67.75
20027;BME280;10174;42.688;23.344;2023-03-12T02:33:08;94556.28;;;1.58;68.35
20027;BME280;10174;42.688;23.344;2023-03-12T02:35:34;94546.28;;;1.60;68.06
20027;BME280;10174;42.688;23.344;2023-03-12T02:38:01;94543.88;;;1.59;67.73
20027;BME280;10174;42.688;23.344;2023-03-12T02:40:38;94553.63;;;1.58;68.60
20027;BME280;10174;42.688;23.344;2023-03-12T02:43:07;94555.81;;;1.62;68.87
20027;BME280;10174;42.688;23.344;2023-03-12T02:45:34;94554.91;;;1.56;68.21
20027;BME280;10174;42.688;23.344;2023-03-12T02:48:02;94555.13;;;1.54;68.53
20027;BME280;10174;42.688;23.344;2023-03-12T02:50:28;94538.38;;;1.42;69.17
20027;BME280;10174;42.688;23.344;2023-03-12T02:52:53;94533.06;;;1.42;69.54
20027;BME280;10174;42.688;23.344;2023-03-12T02:55:18;94444.44;;;0.72;69.03
20027;BME280;10174;42.688;23.344;2023-03-12T02:57:44;94536.16;;;1.39;69.30
20027;BME280;10174;42.688;23.344;2023-03-12T03:00:11;94554.25;;;1.42;69.94
20027;BME280;10174;42.688;23.344;2023-03-12T03:02:38;94515.25;;;1.19;70.74
20027;BME280;10174;42.688;23.344;2023-03-12T03:05:05;94515.44;;;1.36;69.90
20027;BME280;10174;42.688;23.344;2023-03-12T03:07:31;94523.38;;;1.36;69.22
20027;BME280;10174;42.688;23.344;2023-03-12T03:09:56;94521.84;;;1.28;71.25
20027;BME280;10174;42.688;23.344;2023-03-12T03:12:28;94515.53;;;1.29;71.05
20027;BME280;10174;42.688;23.344;2023-03-12T03:14:53;94417.34;;;0.77;70.06
20027;BME280;10174;42.688;23.344;2023-03-12T03:17:18;94405.31;;;0.62;70.85
20027;BME280;10174;42.688;23.344;2023-03-12T03:19:44;94542.81;;;1.30;70.79
20027;BME280;10174;42.688;23.344;2023-03-12T03:22:09;94548.09;;;1.30;70.80
20027;BME280;10174;42.688;23.344;2023-03-12T03:24:35;94559.88;;;1.34;70.84
20027;BME280;10174;42.688;23.344;2023-03-12T03:27:00;94565.47;;;1.26;70.54
20027;BME280;10174;42.688;23.344;2023-03-12T03:29:25;94559.56;;;1.23;71.13
20027;BME280;10174;42.688;23.344;2023-03-12T03:31:51;94558.56;;;1.24;69.97
20027;BME280;10174;42.688;23.344;2023-03-12T03:34:16;94535.13;;;1.10;69.98
20027;BME280;10174;42.688;23.344;2023-03-12T03:36:42;94549.59;;;1.26;69.69
20027;BME280;10174;42.688;23.344;2023-03-12T03:39:07;94538.94;;;1.14;70.16
20027;BME280;10174;42.688;23.344;2023-03-12T03:41:32;94561.66;;;1.21;69.48
20027;BME280;10174;42.688;23.344;2023-03-12T03:43:58;94562.53;;;1.15;69.34
20027;BME280;10174;42.688;23.344;2023-03-12T03:46:24;94573.69;;;1.17;69.37
20027;BME280;10174;42.688;23.344;2023-03-12T03:48:50;94567.84;;;1.15;69.26
20027;BME280;10174;42.688;23.344;2023-03-12T03:51:16;94565.06;;;1.10;69.16
20027;BME280;10174;42.688;23.344;2023-03-12T03:53:41;94585.78;;;1.13;68.47
20027;BME280;10174;42.688;23.344;2023-03-12T03:56:12;94588.44;;;1.13;68.80
20027;BME280;10174;42.688;23.344;2023-03-12T03:58:38;94572.31;;;1.15;69.07
20027;BME280;10174;42.688;23.344;2023-03-12T04:01:03;94573.56;;;1.12;69.41
20027;BME280;10174;42.688;23.344;2023-03-12T04:03:30;94576.66;;;1.09;69.31
20027;BME280;10174;42.688;23.344;2023-03-12T04:05:58;94579.75;;;1.06;69.31
20027;BME280;10174;42.688;23.344;2023-03-12T04:08:24;94573.28;;;1.02;68.56
20027;BME280;10174;42.688;23.344;2023-03-12T04:10:50;94595.63;;;1.06;68.67
20027;BME280;10174;42.688;23.344;2023-03-12T04:13:16;94608.63;;;1.08;68.33
20027;BME280;10174;42.688;23.344;2023-03-12T04:15:52;94583.19;;;0.88;67.81
20027;BME280;10174;42.688;23.344;2023-03-12T04:18:18;94605.47;;;0.99;68.52
20027;BME280;10174;42.688;23.344;2023-03-12T04:20:43;94591.34;;;0.86;66.26
20027;BME280;10174;42.688;23.344;2023-03-12T04:23:09;94604.28;;;0.95;67.41
20027;BME280;10174;42.688;23.344;2023-03-12T04:25:35;94619.72;;;0.98;65.44
20027;BME280;10174;42.688;23.344;2023-03-12T04:28:01;94625.06;;;0.91;65.45
20027;BME280;10174;42.688;23.344;2023-03-12T04:30:27;94611.94;;;0.84;64.89
20027;BME280;10174;42.688;23.344;2023-03-12T04:32:53;94545.03;;;0.40;65.84
20027;BME280;10174;42.688;23.344;2023-03-12T04:35:19;94643.81;;;0.89;65.15
20027;BME280;10174;42.688;23.344;2023-03-12T04:37:45;94627.34;;;0.69;64.85
20027;BME280;10174;42.688;23.344;2023-03-12T04:40:11;94648.91;;;0.66;64.48
20027;BME280;10174;42.688;23.344;2023-03-12T04:42:37;94644.06;;;0.63;64.43
20027;BME280;10174;42.688;23.344;2023-03-12T04:45:04;94643.84;;;0.64;64.51
20027;BME280;10174;42.688;23.344;2023-03-12T04:47:31;94636.28;;;0.68;64.57
20027;BME280;10174;42.688;23.344;2023-03-12T04:49:57;94675.72;;;0.69;64.27
20027;BME280;10174;42.688;23.344;2023-03-12T04:52:23;94662.16;;;0.66;64.35
20027;BME280;10174;42.688;23.344;2023-03-12T04:54:48;94652.44;;;0.60;64.61
20027;BME280;10174;42.688;23.344;2023-03-12T04:57:15;94671.31;;;0.63;64.84
20027;BME280;10174;42.688;23.344;2023-03-12T04:59:40;94676.22;;;0.60;65.06
20027;BME280;10174;42.688;23.344;2023-03-12T05:02:06;94677.94;;;0.47;64.57
20027;BME280;10174;42.688;23.344;2023-03-12T05:04:31;94695.47;;;0.67;64.27
20027;BME280;10174;42.688;23.344;2023-03-12T05:06:57;94649.56;;;0.36;65.30
20027;BME280;10174;42.688;23.344;2023-03-12T05:09:22;94685.75;;;0.61;65.65
20027;BME280;10174;42.688;23.344;2023-03-12T05:11:47;94681.75;;;0.51;65.37
20027;BME280;10174;42.688;23.344;2023-03-12T05:14:13;94601.03;;;0.05;65.76
20027;BME280;10174;42.688;23.344;2023-03-12T05:16:38;94710.09;;;0.69;65.75
20027;BME280;10174;42.688;23.344;2023-03-12T05:19:04;94712.38;;;0.66;65.67
20027;BME280;10174;42.688;23.344;2023-03-12T05:21:30;94676.75;;;0.43;65.03
20027;BME280;10174;42.688;23.344;2023-03-12T05:23:55;94696.25;;;0.49;65.73
20027;BME280;10174;42.688;23.344;2023-03-12T05:26:26;94723.38;;;0.63;65.58
20027;BME280;10174;42.688;23.344;2023-03-12T05:28:52;94720.75;;;0.63;65.41
20027;BME280;10174;42.688;23.344;2023-03-12T05:31:18;94716.84;;;0.65;66.21
20027;BME280;10174;42.688;23.344;2023-03-12T05:33:43;94725.38;;;0.67;65.82
20027;BME280;10174;42.688;23.344;2023-03-12T05:36:10;94712.03;;;0.56;66.75
20027;BME280;10174;42.688;23.344;2023-03-12T05:38:36;94698.25;;;0.53;66.37
20027;BME280;10174;42.688;23.344;2023-03-12T05:41:02;94720.97;;;0.61;64.95
20027;BME280;10174;42.688;23.344;2023-03-12T05:43:28;94739.75;;;0.78;63.27
20027;BME280;10174;42.688;23.344;2023-03-12T05:45:57;94757.81;;;0.81;63.24
20027;BME280;10174;42.688;23.344;2023-03-12T05:48:23;94752.47;;;0.88;61.47
20027;BME280;10174;42.688;23.344;2023-03-12T05:50:49;94746.81;;;0.84;62.14
20027;BME280;10174;42.688;23.344;2023-03-12T05:53:14;94634.63;;;0.23;62.92
20027;BME280;10174;42.688;23.344;2023-03-12T05:55:39;94738.59;;;0.93;61.80
20027;BME280;10174;42.688;23.344;2023-03-12T05:58:06;94757.16;;;1.11;60.88
20027;BME280;10174;42.688;23.344;2023-03-12T06:00:33;94750.19;;;1.17;61.01
20027;BME280;10174;42.688;23.344;2023-03-12T06:03:03;94769.25;;;1.26;61.17
20027;BME280;10174;42.688;23.344;2023-03-12T06:05:29;94779.44;;;1.22;59.02
20027;BME280;10174;42.688;23.344;2023-03-12T06:07:54;94780.06;;;1.24;59.97
20027;BME280;10174;42.688;23.344;2023-03-12T06:10:20;94778.72;;;1.15;60.01
20027;BME280;10174;42.688;23.344;2023-03-12T06:12:45;94778.66;;;1.21;59.51
20027;BME280;10174;42.688;23.344;2023-03-12T06:15:11;94799.81;;;1.21;60.04
20027;BME280;10174;42.688;23.344;2023-03-12T06:17:36;94793.06;;;1.26;59.99
20027;BME280;10174;42.688;23.344;2023-03-12T06:20:02;94773.47;;;1.08;59.29
20027;BME280;10174;42.688;23.344;2023-03-12T06:22:27;94812.06;;;1.16;58.00
20027;BME280;10174;42.688;23.344;2023-03-12T06:24:53;94779.63;;;1.02;58.45
20027;BME280;10174;42.688;23.344;2023-03-12T06:27:19;94827.31;;;1.20;58.86
20027;BME280;10174;42.688;23.344;2023-03-12T06:29:44;94816.56;;;1.15;59.19
20027;BME280;10174;42.688;23.344;2023-03-12T06:32:11;94814.41;;;1.31;58.66
20027;BME280;10174;42.688;23.344;2023-03-12T06:34:37;94829.69;;;1.29;58.21
20027;BME280;10174;42.688;23.344;2023-03-12T06:37:02;94794.59;;;1.15;57.43
20027;BME280;10174;42.688;23.344;2023-03-12T06:39:28;94802.63;;;1.27;58.13
20027;BME280;10174;42.688;23.344;2023-03-12T06:41:54;94752.25;;;0.89;58.34
20027;BME280;10174;42.688;23.344;2023-03-12T06:44:20;94844.44;;;1.43;58.71
20027;BME280;10174;42.688;23.344;2023-03-12T06:46:45;94819.91;;;1.54;58.20
20027;BME280;10174;42.688;23.344;2023-03-12T06:49:11;94724.03;;;0.83;57.48
20027;BME280;10174;42.688;23.344;2023-03-12T06:51:36;94837.09;;;1.45;57.72
20027;BME280;10174;42.688;23.344;2023-03-12T06:54:02;94846.41;;;1.48;57.42
20027;BME280;10174;42.688;23.344;2023-03-12T06:56:28;94846.84;;;1.45;56.57
20027;BME280;10174;42.688;23.344;2023-03-12T06:58:54;94848.06;;;1.49;56.36
20027;BME280;10174;42.688;23.344;2023-03-12T07:01:20;94862.41;;;1.59;54.60
20027;BME280;10174;42.688;23.344;2023-03-12T07:03:46;94828.59;;;1.36;55.51
20027;BME280;10174;42.688;23.344;2023-03-12T07:06:16;94857.69;;;1.62;54.58
20027;BME280;10174;42.688;23.344;2023-03-12T07:08:43;94850.47;;;1.50;54.13
20027;BME280;10174;42.688;23.344;2023-03-12T07:11:08;94880.09;;;1.66;54.82
20027;BME280;10174;42.688;23.344;2023-03-12T07:13:34;94868.44;;;1.48;54.64
20027;BME280;10174;42.688;23.344;2023-03-12T07:15:59;94863.88;;;1.55;55.67
20027;BME280;10174;42.688;23.344;2023-03-12T07:18:25;94877.28;;;1.60;54.73
20027;BME280;10174;42.688;23.344;2023-03-12T07:20:51;94889.81;;;1.72;54.15
20027;BME280;10174;42.688;23.344;2023-03-12T07:23:16;94865.72;;;1.55;54.90
20027;BME280;10174;42.688;23.344;2023-03-12T07:25:43;94889.28;;;1.82;54.54
20027;BME280;10174;42.688;23.344;2023-03-12T07:28:09;94880.88;;;1.66;54.25
20027;BME280;10174;42.688;23.344;2023-03-12T07:30:36;94823.69;;;1.40;54.40
20027;BME280;10174;42.688;23.344;2023-03-12T07:33:02;94894.66;;;1.75;54.79
20027;BME280;10174;42.688;23.344;2023-03-12T07:35:28;94874.28;;;1.75;54.93
20027;BME280;10174;42.688;23.344;2023-03-12T07:37:54;94871.38;;;1.84;54.83
20027;BME280;10174;42.688;23.344;2023-03-12T07:40:19;94879.22;;;1.90;54.10
20027;BME280;10174;42.688;23.344;2023-03-12T07:42:45;94887.94;;;1.98;54.08
20027;BME280;10174;42.688;23.344;2023-03-12T07:45:10;94908.69;;;2.01;53.33
20027;BME280;10174;42.688;23.344;2023-03-12T07:47:36;94879.44;;;1.89;53.49
20027;BME280;10174;42.688;23.344;2023-03-12T07:50:02;94888.94;;;1.78;52.95
20027;BME280;10174;42.688;23.344;2023-03-12T07:52:27;94891.69;;;1.90;53.28
20027;BME280;10174;42.688;23.344;2023-03-12T07:54:53;94908.38;;;1.90;53.67
20027;BME280;10174;42.688;23.344;2023-03-12T07:57:21;94901.63;;;1.94;53.94
20027;BME280;10174;42.688;23.344;2023-03-12T07:59:46;94893.38;;;2.03;54.27
20027;BME280;10174;42.688;23.344;2023-03-12T08:02:12;94896.41;;;2.06;52.93
20027;BME280;10174;42.688;23.344;2023-03-12T08:04:38;94823.47;;;1.85;51.88
20027;BME280;10174;42.688;23.344;2023-03-12T08:07:03;94918.13;;;2.34;52.11
20027;BME280;10174;42.688;23.344;2023-03-12T08:09:29;94905.69;;;2.53;51.85
20027;BME280;10174;42.688;23.344;2023-03-12T08:11:54;94873.22;;;2.02;52.92
20027;BME280;10174;42.688;23.344;2023-03-12T08:14:20;94905.31;;;2.30;52.11
20027;BME280;10174;42.688;23.344;2023-03-12T08:16:46;94922.41;;;2.16;51.88
20027;BME280;10174;42.688;23.344;2023-03-12T08:19:12;94910.75;;;1.99;52.12
20027;BME280;10174;42.688;23.344;2023-03-12T08:21:37;94924.69;;;2.12;52.66
20027;BME280;10174;42.688;23.344;2023-03-12T08:24:03;94946.41;;;2.21;53.23
20027;BME280;10174;42.688;23.344;2023-03-12T08:26:29;94937.13;;;2.12;52.77
20027;BME280;10174;42.688;23.344;2023-03-12T08:28:54;94943.47;;;2.29;52.71
20027;BME280;10174;42.688;23.344;2023-03-12T08:31:19;94927.63;;;2.23;51.54
20027;BME280;10174;42.688;23.344;2023-03-12T08:33:45;94916.22;;;2.22;51.48
20027;BME280;10174;42.688;23.344;2023-03-12T08:36:11;94946.28;;;2.53;51.51
20027;BME280;10174;42.688;23.344;2023-03-12T08:38:36;94947.16;;;2.28;51.02
20027;BME280;10174;42.688;23.344;2023-03-12T08:41:02;94943.63;;;2.53;51.38
20027;BME280;10174;42.688;23.344;2023-03-12T08:43:27;94939.78;;;2.67;51.05
20027;BME280;10174;42.688;23.344;2023-03-12T08:45:57;94942.91;;;2.64;50.80
20027;BME280;10174;42.688;23.344;2023-03-12T08:48:23;94905.88;;;2.70;50.78
20027;BME280;10174;42.688;23.344;2023-03-12T08:50:49;94930.53;;;3.07;50.29
20027;BME280;10174;42.688;23.344;2023-03-12T08:53:16;94946.50;;;3.61;49.46
20027;BME280;10174;42.688;23.344;2023-03-12T08:55:41;94951.72;;;3.91;47.93
20027;BME280;10174;42.688;23.344;2023-03-12T08:58:07;94964.34;;;4.32;47.37
20027;BME280;10174;42.688;23.344;2023-03-12T09:00:32;94949.28;;;4.61;46.99
20027;BME280;10174;42.688;23.344;2023-03-12T09:02:58;94926.47;;;4.65;45.63
20027;BME280;10174;42.688;23.344;2023-03-12T09:05:24;94957.31;;;5.76;44.73
20027;BME280;10174;42.688;23.344;2023-03-12T09:07:49;94971.06;;;6.19;43.27
20027;BME280;10174;42.688;23.344;2023-03-12T09:10:15;94778.47;;;4.93;43.89
20027;BME280;10174;42.688;23.344;2023-03-12T09:12:41;94947.06;;;6.75;41.95
20027;BME280;10174;42.688;23.344;2023-03-12T09:15:07;94958.59;;;5.91;43.47
20027;BME280;10174;42.688;23.344;2023-03-12T09:17:33;94963.47;;;6.28;43.09
20027;BME280;10174;42.688;23.344;2023-03-12T09:19:58;94954.09;;;6.25;40.83
20027;BME280;10174;42.688;23.344;2023-03-12T09:22:24;94953.00;;;7.04;40.54
20027;BME280;10174;42.688;23.344;2023-03-12T09:24:50;94834.81;;;6.92;39.60
20027;BME280;10174;42.688;23.344;2023-03-12T09:27:15;94888.06;;;7.91;38.75
20027;BME280;10174;42.688;23.344;2023-03-12T09:29:41;94967.59;;;8.76;36.60
20027;BME280;10174;42.688;23.344;2023-03-12T09:32:06;94853.13;;;8.02;36.85
20027;BME280;10174;42.688;23.344;2023-03-12T09:34:33;94933.97;;;8.95;36.05
20027;BME280;10174;42.688;23.344;2023-03-12T09:36:59;94937.38;;;8.43;36.73
20027;BME280;10174;42.688;23.344;2023-03-12T09:39:24;94962.59;;;9.68;36.35
20027;BME280;10174;42.688;23.344;2023-03-12T09:41:50;94966.91;;;9.90;34.38
20027;BME280;10174;42.688;23.344;2023-03-12T09:44:35;94969.59;;;10.10;34.44
20027;BME280;10174;42.688;23.344;2023-03-12T09:49:54;94960.59;;;9.33;35.37
20027;BME280;10174;42.688;23.344;2023-03-12T09:52:43;94959.41;;;9.92;34.08
20027;BME280;10174;42.688;23.344;2023-03-12T09:55:16;94955.09;;;9.91;33.26
20027;BME280;10174;42.688;23.344;2023-03-12T09:57:43;94938.41;;;10.71;33.61
20027;BME280;10174;42.688;23.344;2023-03-12T10:00:15;94957.06;;;11.22;32.42
20027;BME280;10174;42.688;23.344;2023-03-12T10:08:32;94931.81;;;11.18;31.45
20027;BME280;10174;42.688;23.344;2023-03-12T10:24:59;94925.91;;;12.40;30.03
20027;BME280;10174;42.688;23.344;2023-03-12T10:27:31;94915.25;;;10.91;30.72
20027;BME280;10174;42.688;23.344;2023-03-12T10:30:00;94941.06;;;10.86;32.05
20027;BME280;10174;42.688;23.344;2023-03-12T10:32:43;94878.88;;;9.81;33.36
20027;BME280;10174;42.688;23.344;2023-03-12T10:35:15;94954.47;;;10.92;31.71
20027;BME280;10174;42.688;23.344;2023-03-12T10:38:02;94954.56;;;10.14;33.10
20027;BME280;10174;42.688;23.344;2023-03-12T10:40:31;94937.94;;;10.07;33.61
20027;BME280;10174;42.688;23.344;2023-03-12T10:43:00;94926.13;;;10.49;32.98
20027;BME280;10174;42.688;23.344;2023-03-12T10:48:16;94878.63;;;10.14;33.49
20027;BME280;10174;42.688;23.344;2023-03-12T10:50:42;94943.41;;;11.03;33.61
20027;BME280;10174;42.688;23.344;2023-03-12T10:53:23;94845.94;;;12.84;30.42
20027;BME280;10174;42.688;23.344;2023-03-12T10:56:11;94715.34;;;10.86;29.88
20027;BME280;10174;42.688;23.344;2023-03-12T10:58:38;94930.59;;;11.90;31.31
20027;BME280;10174;42.688;23.344;2023-03-12T11:01:14;94926.78;;;12.84;31.15
20027;BME280;10174;42.688;23.344;2023-03-12T11:03:43;94939.81;;;13.87;28.29
20027;BME280;10174;42.688;23.344;2023-03-12T11:06:20;94829.16;;;11.51;30.58
20027;BME280;10174;42.688;23.344;2023-03-12T11:09:04;94931.34;;;12.64;29.84
20027;BME280;10174;42.688;23.344;2023-03-12T11:11:32;94928.63;;;13.13;29.32
20027;BME280;10174;42.688;23.344;2023-03-12T11:14:06;94920.41;;;12.21;30.28
20027;BME280;10174;42.688;23.344;2023-03-12T11:16:32;94915.56;;;12.23;31.12
20027;BME280;10174;42.688;23.344;2023-03-12T11:18:59;94933.28;;;12.83;30.84
20027;BME280;10174;42.688;23.344;2023-03-12T11:21:26;94906.66;;;14.67;27.10
20027;BME280;10174;42.688;23.344;2023-03-12T11:26:27;94920.56;;;14.27;28.58
20027;BME280;10174;42.688;23.344;2023-03-12T11:31:56;94917.72;;;12.21;29.04
20027;BME280;10174;42.688;23.344;2023-03-12T11:34:26;94928.69;;;10.91;31.40
20027;BME280;10174;42.688;23.344;2023-03-12T11:37:07;94934.31;;;10.94;31.84
20027;BME280;10174;42.688;23.344;2023-03-12T11:39:57;94932.50;;;9.51;33.26
20027;BME280;10174;42.688;23.344;2023-03-12T11:42:38;94924.28;;;11.15;30.73
20027;BME280;10174;42.688;23.344;2023-03-12T11:45:32;94921.91;;;12.62;29.61
20027;BME280;10174;42.688;23.344;2023-03-12T11:56:28;94903.44;;;14.51;27.87
20027;BME280;10174;42.688;23.344;2023-03-12T12:02:32;94904.94;;;13.91;28.39
20027;BME280;10174;42.688;23.344;2023-03-12T12:05:12;94907.22;;;13.46;28.74
20027;BME280;10174;42.688;23.344;2023-03-12T12:13:10;94915.53;;;13.68;28.55
20027;BME280;10174;42.688;23.344;2023-03-12T12:27:19;94916.97;;;10.56;33.56
20027;BME280;10174;42.688;23.344;2023-03-12T12:35:40;94914.63;;;8.93;34.70
20027;BME280;10174;42.688;23.344;2023-03-12T12:38:23;94911.16;;;8.98;35.19
20027;BME280;10174;42.688;23.344;2023-03-12T12:41:22;94911.09;;;9.87;34.99
20027;BME280;10174;42.688;23.344;2023-03-12T12:43:51;94904.28;;;10.72;33.08
20027;BME280;10174;42.688;23.344;2023-03-12T12:46:23;94897.34;;;11.70;31.75
20027;BME280;10174;42.688;23.344;2023-03-12T12:49:04;94902.91;;;10.79;32.53
20027;BME280;10174;42.688;23.344;2023-03-12T12:51:36;94913.19;;;10.72;32.68
20027;BME280;10174;42.688;23.344;2023-03-12T12:56:57;94913.25;;;9.90;35.10
20027;BME280;10174;42.688;23.344;2023-03-12T13:02:23;94919.25;;;8.50;37.89
20027;BME280;10174;42.688;23.344;2023-03-12T13:04:57;94908.44;;;8.34;38.86
20027;BME280;10174;42.688;23.344;2023-03-12T13:09:50;94898.91;;;7.74;38.26
20027;BME280;10174;42.688;23.344;2023-03-12T13:12:46;94911.06;;;7.27;39.10
20027;BME280;10174;42.688;23.344;2023-03-12T13:21:18;94886.06;;;6.67;40.40
20027;BME280;10174;42.688;23.344;2023-03-12T13:24:04;94920.41;;;7.29;40.55
20027;BME280;10174;42.688;23.344;2023-03-12T13:32:00;94919.75;;;7.44;39.22
20027;BME280;10174;42.688;23.344;2023-03-12T13:36:53;94923.84;;;7.25;40.46
20027;BME280;10174;42.688;23.344;2023-03-12T13:39:34;94907.63;;;7.31;39.75
20027;BME280;10174;42.688;23.344;2023-03-12T13:44:49;94928.97;;;7.59;39.17
20027;BME280;10174;42.688;23.344;2023-03-12T13:47:21;94924.25;;;7.39;38.98
20027;BME280;10174;42.688;23.344;2023-03-12T13:49:54;94939.88;;;7.25;39.83
20027;BME280;10174;42.688;23.344;2023-03-12T13:52:31;94936.78;;;7.11;40.58
20027;BME280;10174;42.688;23.344;2023-03-12T13:57:47;94933.88;;;6.90;40.52
20027;BME280;10174;42.688;23.344;2023-03-12T14:02:44;94938.16;;;7.13;39.71
20027;BME280;10174;42.688;23.344;2023-03-12T14:05:15;94884.63;;;6.59;39.85
20027;BME280;10174;42.688;23.344;2023-03-12T14:10:39;94907.84;;;7.03;40.03
20027;BME280;10174;42.688;23.344;2023-03-12T14:13:24;94915.00;;;6.97;39.64
20027;BME280;10174;42.688;23.344;2023-03-12T14:16:37;94949.00;;;7.07;40.68
20027;BME280;10174;42.688;23.344;2023-03-12T14:19:04;94906.44;;;6.73;40.61
20027;BME280;10174;42.688;23.344;2023-03-12T14:21:37;94925.84;;;6.46;40.60
20027;BME280;10174;42.688;23.344;2023-03-12T14:24:05;94947.16;;;6.85;41.39
20027;BME280;10174;42.688;23.344;2023-03-12T14:26:34;94936.47;;;6.85;40.61
20027;BME280;10174;42.688;23.344;2023-03-12T14:29:08;94854.09;;;6.28;40.35
20027;BME280;10174;42.688;23.344;2023-03-12T14:31:35;94971.38;;;7.01;40.17
20027;BME280;10174;42.688;23.344;2023-03-12T14:34:17;94958.84;;;6.79;39.92
20027;BME280;10174;42.688;23.344;2023-03-12T14:37:03;94961.78;;;6.60;40.49
20027;BME280;10174;42.688;23.344;2023-03-12T14:42:09;94849.38;;;6.57;39.84
20027;BME280;10174;42.688;23.344;2023-03-12T14:44:37;94958.41;;;7.31;39.91
20027;BME280;10174;42.688;23.344;2023-03-12T14:47:08;94949.22;;;7.00;40.05
20027;BME280;10174;42.688;23.344;2023-03-12T14:49:43;94962.75;;;6.71;40.53
20027;BME280;10174;42.688;23.344;2023-03-12T14:52:14;94930.81;;;6.59;40.38